createdAt,value
2022-08-07T00:00:34.184Z,44.37
2022-08-07T00:01:44.340Z,44.47
2022-08-07T00:02:41.244Z,44.37
2022-08-07T00:03:36.753Z,44.47
2022-08-07T00:04:33.157Z,44.24
2022-08-07T00:05:33.104Z,44.35
2022-08-07T00:06:33.911Z,44.04
2022-08-07T00:07:40.278Z,43.84
2022-08-07T00:08:34.075Z,43.95
2022-08-07T00:09:35.830Z,44.15
2022-08-07T00:10:33.053Z,43.95
2022-08-07T00:11:33.401Z,44.04
2022-08-07T00:12:33.016Z,44.15
2022-08-07T00:13:33.005Z,44.24
2022-08-07T00:14:32.996Z,44.15
2022-08-07T00:15:37.798Z,44.04
2022-08-07T00:16:33.994Z,44.15
2022-08-07T00:17:35.200Z,44.24
2022-08-07T00:18:32.966Z,44.55
2022-08-07T00:20:00.514Z,44.35
2022-08-07T00:20:34.288Z,44.85
2022-08-07T00:21:56.513Z,44.75
2022-08-07T00:22:35.285Z,44.65
2022-08-07T00:23:32.845Z,44.47
2022-08-07T00:24:32.897Z,44.57
2022-08-07T00:25:41.237Z,44.57
2022-08-07T00:26:49.233Z,44.65
2022-08-07T00:27:51.933Z,44.87
2022-08-07T00:28:34.457Z,44.87
2022-08-07T00:29:33.807Z,45.37
2022-08-07T00:30:32.766Z,45.07
2022-08-07T00:31:38.409Z,45.07
2022-08-07T00:32:34.983Z,45.37
2022-08-07T00:33:33.027Z,46.28
2022-08-07T00:34:32.726Z,45.07
2022-08-07T00:35:32.716Z,45.27
2022-08-07T00:36:32.687Z,45.17
2022-08-07T00:37:47.615Z,45.37
2022-08-07T00:38:33.725Z,45.27
2022-08-07T00:39:32.715Z,45.27
2022-08-07T00:40:36.472Z,45.37
2022-08-07T00:41:33.643Z,45.57
2022-08-07T00:42:33.608Z,46.08
2022-08-07T00:44:01.111Z,46.28
2022-08-07T00:44:33.879Z,46.28
2022-08-07T00:45:32.558Z,46.60
2022-08-07T00:46:33.111Z,47.20
2022-08-07T00:48:09.460Z,46.00
2022-08-07T00:48:33.515Z,46.10
2022-08-07T00:50:20.455Z,46.10
2022-08-07T00:50:46.317Z,46.10
2022-08-07T00:51:57.449Z,46.91
2022-08-07T00:52:33.492Z,46.10
2022-08-07T00:53:44.164Z,46.30
2022-08-07T00:54:33.436Z,47.31
2022-08-07T00:56:03.276Z,46.30
2022-08-07T00:56:33.895Z,46.40
2022-08-07T00:57:34.167Z,46.62
2022-08-07T00:58:32.487Z,46.42
2022-08-07T00:59:35.395Z,47.13
2022-08-07T01:00:32.347Z,47.20
2022-08-07T01:01:41.356Z,46.91
2022-08-07T01:02:33.360Z,46.50
2022-08-07T01:03:57.061Z,46.73
2022-08-07T01:04:36.398Z,46.73
2022-08-07T01:05:33.286Z,46.83
2022-08-07T01:06:32.296Z,46.73
2022-08-07T01:07:32.304Z,46.83
2022-08-07T01:08:32.257Z,46.83
2022-08-07T01:10:03.877Z,46.83
2022-08-07T01:10:33.245Z,46.93
2022-08-07T01:12:23.618Z,46.93
2022-08-07T01:12:33.198Z,47.13
2022-08-07T01:13:35.076Z,47.23
2022-08-07T01:14:32.198Z,47.53
2022-08-07T01:16:00.956Z,47.94
2022-08-07T01:16:33.181Z,48.03
2022-08-07T01:17:32.140Z,48.14
2022-08-07T01:18:32.128Z,47.63
2022-08-07T01:19:32.953Z,47.94
2022-08-07T01:20:32.129Z,47.63
2022-08-07T01:21:32.088Z,47.53
2022-08-07T01:22:32.085Z,47.63
2022-08-07T01:23:35.488Z,47.83
2022-08-07T01:24:33.059Z,47.94
2022-08-07T01:25:53.528Z,47.74
2022-08-07T01:26:33.039Z,48.64
2022-08-07T01:27:32.644Z,48.64
2022-08-07T01:28:32.079Z,47.94
2022-08-07T01:29:34.144Z,48.24
2022-08-07T01:30:31.948Z,48.44
2022-08-07T01:31:42.491Z,48.03
2022-08-07T01:32:33.016Z,47.94
2022-08-07T01:33:47.618Z,48.14
2022-08-07T01:34:32.949Z,48.14
2022-08-07T01:35:53.198Z,48.34
2022-08-07T01:36:33.839Z,48.34
2022-08-07T01:37:31.920Z,48.14
2022-08-07T01:38:31.937Z,48.24
2022-08-07T01:39:40.702Z,48.86
2022-08-07T01:40:33.002Z,48.46
2022-08-07T01:41:32.600Z,48.46
2022-08-07T01:42:38.516Z,48.56
2022-08-07T01:43:34.761Z,48.76
2022-08-07T01:44:32.875Z,48.76
2022-08-07T01:45:36.275Z,48.96
2022-08-07T01:46:32.780Z,49.37
2022-08-07T01:48:18.585Z,49.37
2022-08-07T01:48:33.433Z,49.27
2022-08-07T01:49:31.957Z,49.47
2022-08-07T01:50:31.793Z,50.48
2022-08-07T01:52:02.804Z,50.57
2022-08-07T01:52:32.721Z,50.07
2022-08-07T01:54:11.600Z,50.30
2022-08-07T01:54:36.990Z,50.57
2022-08-07T01:55:33.612Z,49.49
2022-08-07T01:56:32.773Z,49.27
2022-08-07T01:58:01.294Z,49.19
2022-08-07T01:58:33.138Z,49.39
2022-08-07T01:59:31.713Z,49.59
2022-08-07T02:00:31.589Z,49.39
2022-08-07T02:01:59.931Z,49.59
2022-08-07T02:03:19.135Z,49.79
2022-08-07T02:03:48.805Z,49.79
2022-08-07T02:04:32.670Z,49.79
2022-08-07T02:05:48.003Z,49.59
2022-08-07T02:06:32.721Z,49.59
2022-08-07T02:07:44.824Z,49.69
2022-08-07T02:08:32.542Z,49.99
2022-08-07T02:09:51.836Z,50.10
2022-08-07T02:10:32.609Z,50.10
2022-08-07T02:12:03.309Z,49.99
2022-08-07T02:12:32.427Z,50.20
2022-08-07T02:13:57.218Z,49.99
2022-08-07T02:14:32.496Z,49.90
2022-08-07T02:15:31.459Z,49.90
2022-08-07T02:16:33.647Z,50.20
2022-08-07T02:17:34.130Z,50.60
2022-08-07T02:18:31.405Z,50.10
2022-08-07T02:20:07.241Z,50.20
2022-08-07T02:20:32.770Z,49.99
2022-08-07T02:21:55.921Z,49.99
2022-08-07T02:22:32.442Z,50.20
2022-08-07T02:23:36.008Z,50.20
2022-08-07T02:24:31.439Z,50.30
2022-08-07T02:26:10.290Z,50.10
2022-08-07T02:26:34.471Z,50.30
2022-08-07T02:27:34.291Z,51.10
2022-08-07T02:28:31.377Z,50.50
2022-08-07T02:29:31.310Z,51.20
2022-08-07T02:30:31.321Z,51.40
2022-08-07T02:31:32.693Z,51.31
2022-08-07T02:32:31.263Z,50.40
2022-08-07T02:33:32.887Z,52.04
2022-08-07T02:34:32.210Z,50.82
2022-08-07T02:36:30.361Z,51.84
2022-08-07T02:36:32.836Z,51.43
2022-08-07T02:37:34.057Z,51.43
2022-08-07T02:38:31.435Z,51.45
2022-08-07T02:39:42.939Z,51.25
2022-08-07T02:40:35.071Z,51.45
2022-08-07T02:41:33.467Z,52.47
2022-08-07T02:42:32.044Z,52.36
2022-08-07T02:43:31.063Z,52.47
2022-08-07T02:44:34.863Z,53.27
2022-08-07T02:45:58.231Z,53.17
2022-08-07T02:46:31.974Z,52.56
2022-08-07T02:47:44.837Z,51.66
2022-08-07T02:48:32.078Z,52.06
2022-08-07T02:49:57.466Z,52.26
2022-08-07T02:50:32.100Z,51.86
2022-08-07T02:51:42.616Z,52.47
2022-08-07T02:52:32.550Z,52.89
2022-08-07T02:53:30.941Z,52.49
2022-08-07T02:54:31.162Z,52.29
2022-08-07T02:56:04.287Z,52.59
2022-08-07T02:56:31.903Z,52.59
2022-08-07T02:57:35.001Z,52.59
2022-08-07T02:58:33.396Z,52.69
2022-08-07T02:59:30.802Z,52.79
2022-08-07T03:00:30.875Z,52.89
2022-08-07T03:01:35.001Z,52.79
2022-08-07T03:02:30.776Z,52.69
2022-08-07T03:03:49.384Z,52.72
2022-08-07T03:04:32.138Z,52.79
2022-08-07T03:05:35.679Z,52.79
2022-08-07T03:06:33.265Z,53.20
2022-08-07T03:08:04.727Z,53.40
2022-08-07T03:08:31.772Z,53.20
2022-08-07T03:09:42.298Z,53.70
2022-08-07T03:10:31.654Z,54.21
2022-08-07T03:11:32.612Z,53.30
2022-08-07T03:12:31.204Z,53.09
2022-08-07T03:13:30.667Z,53.20
2022-08-07T03:14:31.704Z,53.30
2022-08-07T03:15:55.835Z,53.09
2022-08-07T03:16:31.589Z,53.42
2022-08-07T03:17:30.793Z,53.42
2022-08-07T03:18:34.982Z,53.52
2022-08-07T03:19:36.913Z,53.63
2022-08-07T03:20:31.533Z,53.72
2022-08-07T03:21:33.213Z,53.63
2022-08-07T03:22:30.739Z,53.72
2022-08-07T03:23:33.662Z,53.83
2022-08-07T03:24:31.502Z,53.93
2022-08-07T03:25:32.497Z,53.96
2022-08-07T03:26:31.538Z,53.93
2022-08-07T03:27:59.520Z,53.96
2022-08-07T03:28:38.538Z,53.83
2022-08-07T03:29:31.460Z,53.72
2022-08-07T03:30:30.609Z,53.83
2022-08-07T03:31:43.625Z,53.96
2022-08-07T03:32:31.754Z,53.85
2022-08-07T03:33:32.163Z,53.85
2022-08-07T03:34:31.340Z,54.05
2022-08-07T03:35:43.738Z,54.05
2022-08-07T03:36:31.429Z,53.96
2022-08-07T03:37:32.510Z,54.05
2022-08-07T03:38:33.337Z,54.16
2022-08-07T03:39:59.078Z,54.56
2022-08-07T03:40:36.187Z,54.25
2022-08-07T03:41:42.186Z,54.05
2022-08-07T03:42:31.281Z,54.05
2022-08-07T03:43:32.499Z,54.05
2022-08-07T03:44:34.359Z,54.16
2022-08-07T03:45:31.507Z,54.18
2022-08-07T03:46:30.321Z,54.16
2022-08-07T03:47:45.005Z,54.38
2022-08-07T03:48:31.293Z,54.38
2022-08-07T03:49:30.182Z,54.58
2022-08-07T03:50:30.168Z,54.38
2022-08-07T03:51:30.741Z,54.49
2022-08-07T03:52:31.232Z,54.58
2022-08-07T03:53:50.217Z,54.58
2022-08-07T03:54:36.042Z,54.58
2022-08-07T03:55:53.400Z,54.69
2022-08-07T03:56:33.166Z,54.69
2022-08-07T03:59:04.557Z,54.89
2022-08-07T03:59:05.172Z,54.79
2022-08-07T03:59:31.052Z,55.90
2022-08-07T04:00:33.389Z,54.79
2022-08-07T04:01:32.256Z,55.40
2022-08-07T04:02:30.008Z,55.29
2022-08-07T04:03:49.779Z,55.09
2022-08-07T04:04:32.798Z,55.09
2022-08-07T04:05:39.502Z,55.09
2022-08-07T04:06:37.238Z,57.01
2022-08-07T04:07:36.142Z,55.77
2022-08-07T04:08:30.903Z,55.07
2022-08-07T04:09:45.090Z,54.76
2022-08-07T04:10:30.833Z,54.79
2022-08-07T04:12:24.889Z,55.09
2022-08-07T04:12:30.915Z,55.69
2022-08-07T04:13:29.878Z,55.29
2022-08-07T04:14:37.851Z,54.99
2022-08-07T04:15:30.845Z,54.89
2022-08-07T04:16:30.946Z,54.89
2022-08-07T04:18:57.225Z,54.89
2022-08-07T04:19:01.612Z,55.29
2022-08-07T04:19:34.136Z,55.69
2022-08-07T04:20:30.821Z,54.89
2022-08-07T04:21:31.922Z,54.89
2022-08-07T04:22:30.038Z,55.09
2022-08-07T04:23:43.486Z,55.60
2022-08-07T04:24:38.836Z,56.20
2022-08-07T04:25:30.712Z,55.47
2022-08-07T04:26:30.721Z,55.07
2022-08-07T04:27:35.488Z,54.96
2022-08-07T04:28:30.724Z,55.49
2022-08-07T04:29:30.460Z,55.49
2022-08-07T04:30:39.550Z,55.49
2022-08-07T04:32:02.453Z,55.29
2022-08-07T04:32:34.217Z,55.49
2022-08-07T04:33:29.549Z,55.49
2022-08-07T04:34:33.230Z,55.60
2022-08-07T04:35:35.181Z,55.29
2022-08-07T04:36:30.601Z,55.40
2022-08-07T04:37:29.564Z,55.40
2022-08-07T04:38:30.481Z,55.49
2022-08-07T04:39:35.885Z,54.86
2022-08-07T04:40:32.152Z,53.80
2022-08-07T04:41:29.555Z,52.87
2022-08-07T04:42:30.520Z,52.44
2022-08-07T04:44:12.843Z,51.91
2022-08-07T04:44:30.486Z,51.38
2022-08-07T04:45:52.246Z,50.98
2022-08-07T04:46:34.852Z,51.18
2022-08-07T04:48:01.783Z,50.98
2022-08-07T04:48:30.554Z,50.56
2022-08-07T04:49:29.405Z,51.08
2022-08-07T04:50:30.454Z,52.11
2022-08-07T04:51:29.346Z,52.82
2022-08-07T04:52:29.391Z,52.72
2022-08-07T04:54:01.152Z,52.69
2022-08-07T04:54:30.526Z,50.33
2022-08-07T04:58:11.624Z,49.27
2022-08-07T04:58:15.844Z,49.50
2022-08-07T04:58:27.513Z,48.87
2022-08-07T04:58:48.821Z,49.27
2022-08-07T05:00:09.734Z,49.40
2022-08-07T05:00:31.713Z,49.50
2022-08-07T05:01:30.779Z,49.30
2022-08-07T05:02:29.296Z,49.50
2022-08-07T05:04:00.125Z,49.80
2022-08-07T05:04:30.144Z,49.48
2022-08-07T05:05:53.206Z,49.25
2022-08-07T05:06:43.324Z,48.44
2022-08-07T05:07:36.526Z,48.43
2022-08-07T05:08:59.045Z,48.32
2022-08-07T05:09:45.286Z,48.43
2022-08-07T05:10:30.069Z,48.35
2022-08-07T05:11:57.691Z,48.65
2022-08-07T05:12:30.566Z,48.32
2022-08-07T05:14:52.045Z,48.32
2022-08-07T05:14:53.262Z,48.32
2022-08-07T05:15:30.014Z,48.32
2022-08-07T05:16:28.968Z,48.32
2022-08-07T05:17:51.829Z,48.12
2022-08-07T05:18:30.130Z,48.43
2022-08-07T05:19:44.263Z,48.43
2022-08-07T05:20:29.988Z,48.43
2022-08-07T05:22:00.726Z,48.43
2022-08-07T05:22:29.959Z,48.43
2022-08-07T05:23:30.051Z,47.90
2022-08-07T05:24:30.365Z,47.47
2022-08-07T05:26:09.881Z,47.70
2022-08-07T05:26:29.848Z,48.32
2022-08-07T05:28:16.273Z,48.40
2022-08-07T05:28:30.167Z,48.00
2022-08-07T05:29:38.994Z,47.58
2022-08-07T05:30:32.654Z,47.15
2022-08-07T05:31:34.940Z,46.83
2022-08-07T05:32:29.826Z,46.20
2022-08-07T05:33:28.769Z,46.33
2022-08-07T05:34:28.799Z,46.20
2022-08-07T05:35:33.796Z,46.20
2022-08-07T05:36:30.359Z,46.20
2022-08-07T05:37:30.026Z,46.30
2022-08-07T05:38:59.451Z,45.98
2022-08-07T05:40:13.513Z,45.48
2022-08-07T05:40:29.828Z,45.16
2022-08-07T05:42:01.690Z,45.28
2022-08-07T05:42:34.404Z,45.58
2022-08-07T05:43:50.191Z,45.16
2022-08-07T05:44:29.869Z,45.16
2022-08-07T05:45:46.751Z,45.16
2022-08-07T05:46:29.676Z,45.36
2022-08-07T05:47:38.285Z,45.58
2022-08-07T05:48:29.706Z,45.78
2022-08-07T05:49:40.924Z,45.56
2022-08-07T05:50:29.583Z,45.14
2022-08-07T05:51:31.794Z,45.04
2022-08-07T05:52:32.425Z,44.51
2022-08-07T05:54:09.385Z,45.14
2022-08-07T05:54:30.785Z,45.56
2022-08-07T05:56:03.796Z,45.88
2022-08-07T05:56:30.254Z,45.14
2022-08-07T05:57:30.128Z,44.84
2022-08-07T05:58:36.625Z,44.49
2022-08-07T05:59:29.594Z,43.95
2022-08-07T06:00:29.538Z,43.45
2022-08-07T06:01:35.707Z,43.67
2022-08-07T06:02:30.523Z,44.39
2022-08-07T06:03:53.156Z,44.05
2022-08-07T06:04:30.166Z,43.81
2022-08-07T06:05:28.711Z,43.43
2022-08-07T06:06:29.872Z,43.48
2022-08-07T06:08:09.288Z,44.07
2022-08-07T06:08:31.514Z,43.93
2022-08-07T06:10:04.649Z,42.59
2022-08-07T06:10:29.431Z,42.61
2022-08-07T06:11:28.288Z,43.15
2022-08-07T06:12:33.005Z,43.33
2022-08-07T06:14:12.957Z,43.65
2022-08-07T06:14:30.343Z,43.95
2022-08-07T06:15:41.978Z,44.47
2022-08-07T06:16:29.370Z,44.53
2022-08-07T06:17:30.647Z,44.49
2022-08-07T06:18:28.265Z,42.77
2022-08-07T06:19:47.886Z,43.21
2022-08-07T06:20:49.873Z,44.25
2022-08-07T06:22:15.858Z,45.09
2022-08-07T06:22:29.249Z,45.72
2022-08-07T06:24:37.300Z,45.81
2022-08-07T06:24:45.894Z,46.12
2022-08-07T06:25:34.835Z,45.72
2022-08-07T06:26:29.171Z,45.92
2022-08-07T06:27:59.700Z,46.01
2022-08-07T06:28:29.116Z,46.31
2022-08-07T06:29:28.131Z,46.31
2022-08-07T06:30:37.520Z,46.09
2022-08-07T06:31:46.984Z,45.57
2022-08-07T06:32:29.327Z,45.17
2022-08-07T06:33:29.794Z,45.27
2022-08-07T06:34:29.598Z,45.05
2022-08-07T06:35:38.996Z,44.21
2022-08-07T06:36:35.270Z,44.71
2022-08-07T06:37:43.866Z,44.73
2022-08-07T06:38:30.487Z,45.25
2022-08-07T06:40:17.916Z,46.19
2022-08-07T06:40:34.986Z,46.69
2022-08-07T06:41:47.621Z,46.27
2022-08-07T06:42:33.152Z,46.37
2022-08-07T06:43:40.094Z,45.90
2022-08-07T06:44:31.203Z,45.06
2022-08-07T06:45:29.074Z,43.57
2022-08-07T06:46:35.050Z,43.55
2022-08-07T06:47:28.990Z,43.15
2022-08-07T06:48:28.885Z,44.09
2022-08-07T06:49:27.942Z,43.65
2022-08-07T06:50:27.876Z,43.52
2022-08-07T06:51:33.262Z,44.87
2022-08-07T06:52:31.501Z,45.74
2022-08-07T06:54:12.096Z,43.85
2022-08-07T06:55:32.814Z,45.63
2022-08-07T06:56:00.296Z,48.72
2022-08-07T06:56:28.807Z,49.49
2022-08-07T06:57:43.590Z,51.14
2022-08-07T06:58:28.942Z,51.67
2022-08-07T07:00:12.147Z,51.99
2022-08-07T07:00:28.720Z,52.07
2022-08-07T07:01:33.308Z,52.19
2022-08-07T07:02:49.018Z,53.00
2022-08-07T07:03:49.137Z,53.20
2022-08-07T07:04:33.334Z,53.37
2022-08-07T07:06:04.074Z,53.17
2022-08-07T07:06:28.677Z,52.69
2022-08-07T07:07:59.357Z,53.22
2022-08-07T07:08:28.805Z,53.62
2022-08-07T07:09:31.316Z,53.92
2022-08-07T07:10:27.821Z,53.72
2022-08-07T07:12:07.575Z,54.02
2022-08-07T07:12:31.480Z,54.33
2022-08-07T07:13:43.574Z,53.52
2022-08-07T07:14:28.628Z,53.62
2022-08-07T07:15:32.482Z,53.59
2022-08-07T07:16:30.271Z,53.20
2022-08-07T07:17:38.637Z,53.77
2022-08-07T07:18:43.087Z,53.37
2022-08-07T07:19:55.948Z,52.87
2022-08-07T07:20:28.498Z,53.27
2022-08-07T07:21:40.460Z,53.07
2022-08-07T07:22:39.904Z,53.09
2022-08-07T07:24:10.430Z,53.30
2022-08-07T07:24:28.434Z,52.97
2022-08-07T07:26:32.487Z,52.55
2022-08-07T07:26:32.718Z,52.84
2022-08-07T07:27:35.598Z,52.84
2022-08-07T07:28:42.239Z,52.64
2022-08-07T07:29:39.596Z,52.84
2022-08-07T07:30:38.572Z,53.05
2022-08-07T07:31:30.332Z,53.34
2022-08-07T07:32:28.341Z,52.52
2022-08-07T07:33:27.268Z,52.42
2022-08-07T07:34:30.610Z,52.12
2022-08-07T07:35:27.234Z,52.44
2022-08-07T07:36:32.439Z,52.84
2022-08-07T07:37:45.287Z,52.82
2022-08-07T07:38:28.255Z,52.42
2022-08-07T07:39:27.258Z,52.09
2022-08-07T07:40:28.195Z,51.79
2022-08-07T07:41:30.964Z,51.99
2022-08-07T07:42:33.169Z,52.19
2022-08-07T07:44:14.868Z,51.67
2022-08-07T07:44:28.170Z,51.87
2022-08-07T07:46:36.835Z,51.46
2022-08-07T07:46:38.103Z,51.57
2022-08-07T07:47:28.130Z,51.77
2022-08-07T07:48:36.013Z,52.07
2022-08-07T07:50:34.880Z,51.84
2022-08-07T07:50:35.168Z,51.84
2022-08-07T07:51:28.042Z,51.52
2022-08-07T07:52:27.340Z,51.12
2022-08-07T07:53:27.055Z,51.22
2022-08-07T07:54:27.002Z,51.82
2022-08-07T07:55:27.043Z,51.12
2022-08-07T07:56:30.173Z,51.02
2022-08-07T07:57:52.459Z,50.52
2022-08-07T07:58:28.018Z,50.82
2022-08-07T07:59:52.910Z,50.82
2022-08-07T08:00:31.375Z,50.92
2022-08-07T08:02:02.047Z,50.79
2022-08-07T08:02:34.133Z,50.89
2022-08-07T08:04:06.518Z,50.59
2022-08-07T08:04:27.966Z,50.17
2022-08-07T08:05:30.213Z,50.17
2022-08-07T08:06:27.872Z,49.90
2022-08-07T08:07:35.934Z,50.20
2022-08-07T08:08:35.314Z,50.20
2022-08-07T08:09:29.117Z,50.29
2022-08-07T08:10:35.389Z,50.09
2022-08-07T08:11:59.794Z,49.99
2022-08-07T08:12:51.976Z,49.87
2022-08-07T08:13:36.741Z,49.25
2022-08-07T08:14:27.757Z,49.42
2022-08-07T08:15:26.744Z,48.75
2022-08-07T08:16:26.748Z,49.85
2022-08-07T08:17:57.180Z,49.25
2022-08-07T08:18:27.682Z,49.25
2022-08-07T08:20:16.401Z,49.35
2022-08-07T08:20:31.838Z,49.35
2022-08-07T08:21:26.637Z,48.45
2022-08-07T08:22:32.718Z,48.35
2022-08-07T08:23:28.036Z,48.55
2022-08-07T08:24:36.242Z,49.15
2022-08-07T08:25:42.363Z,48.85
2022-08-07T08:26:27.593Z,48.85
2022-08-07T08:27:26.584Z,49.32
2022-08-07T08:28:37.644Z,48.30
2022-08-07T08:29:27.531Z,47.71
2022-08-07T08:30:26.559Z,48.52
2022-08-07T08:31:58.717Z,48.20
2022-08-07T08:32:38.620Z,48.50
2022-08-07T08:33:28.830Z,47.71
2022-08-07T08:34:29.201Z,47.80
2022-08-07T08:35:28.768Z,47.60
2022-08-07T08:36:30.034Z,47.72
2022-08-07T08:37:59.209Z,47.53
2022-08-07T08:38:30.076Z,47.53
2022-08-07T08:39:39.417Z,47.53
2022-08-07T08:40:28.573Z,47.83
2022-08-07T08:41:26.362Z,47.60
2022-08-07T08:42:27.349Z,46.28
2022-08-07T08:43:32.015Z,45.98
2022-08-07T08:44:29.382Z,45.76
2022-08-07T08:45:26.665Z,46.73
2022-08-07T08:46:27.377Z,44.05
2022-08-07T08:47:26.307Z,44.59
2022-08-07T08:48:28.524Z,44.89
2022-08-07T08:49:33.555Z,44.27
2022-08-07T08:50:35.267Z,44.38
2022-08-07T08:51:49.949Z,44.17
2022-08-07T08:52:32.319Z,43.27
2022-08-07T08:53:29.486Z,43.99
2022-08-07T08:54:26.209Z,43.87
2022-08-07T08:55:55.018Z,44.09
2022-08-07T08:56:27.167Z,44.17
2022-08-07T08:57:26.223Z,44.17
2022-08-07T08:58:28.710Z,43.67
2022-08-07T08:59:26.171Z,43.17
2022-08-07T09:00:28.609Z,42.97
2022-08-07T09:01:30.028Z,42.35
2022-08-07T09:02:35.246Z,42.05
2022-08-07T09:03:48.031Z,41.96
2022-08-07T09:04:28.882Z,42.05
2022-08-07T09:05:36.674Z,40.95
2022-08-07T09:06:27.073Z,40.66
2022-08-07T09:07:26.329Z,40.56
2022-08-07T09:08:28.458Z,40.76
2022-08-07T09:09:33.313Z,40.76
2022-08-07T09:10:27.016Z,40.66
2022-08-07T09:11:50.673Z,41.06
2022-08-07T09:12:31.827Z,41.08
2022-08-07T09:13:36.974Z,40.98
2022-08-07T09:14:27.522Z,41.08
2022-08-07T09:16:24.389Z,41.58
2022-08-07T09:16:29.841Z,41.46
2022-08-07T09:17:25.924Z,39.84
2022-08-07T09:18:26.922Z,40.24
2022-08-07T09:19:50.931Z,40.44
2022-08-07T09:20:35.877Z,41.02
2022-08-07T09:21:33.751Z,40.12
2022-08-07T09:24:30.643Z,39.62
2022-08-07T09:24:31.903Z,39.94
2022-08-07T09:24:53.976Z,40.34
2022-08-07T09:25:26.837Z,38.82
2022-08-07T09:26:25.787Z,38.63
2022-08-07T09:27:28.752Z,38.43
2022-08-07T09:30:03.264Z,38.63
2022-08-07T09:30:06.615Z,39.83
2022-08-07T09:30:28.281Z,38.91
2022-08-07T09:31:25.721Z,38.51
2022-08-07T09:32:26.749Z,38.01
2022-08-07T09:33:52.971Z,38.11
2022-08-07T09:34:27.258Z,38.53
2022-08-07T09:36:02.952Z,38.53
2022-08-07T09:36:26.984Z,39.72
2022-08-07T09:37:47.933Z,39.11
2022-08-07T09:38:26.595Z,38.51
2022-08-07T09:39:52.796Z,38.41
2022-08-07T09:40:26.741Z,38.81
2022-08-07T09:41:25.561Z,38.31
2022-08-07T09:42:25.547Z,37.62
2022-08-07T09:44:03.164Z,37.79
2022-08-07T09:44:32.975Z,37.40
2022-08-07T09:47:23.827Z,36.58
2022-08-07T09:47:51.622Z,36.80
2022-08-07T09:47:52.195Z,36.49
2022-08-07T09:48:30.071Z,35.99
2022-08-07T09:50:02.722Z,36.30
2022-08-07T09:50:26.735Z,36.00
2022-08-07T09:52:10.623Z,36.50
2022-08-07T09:52:34.273Z,35.92
2022-08-07T09:53:26.397Z,37.23
2022-08-07T09:54:27.228Z,36.92
2022-08-07T09:55:29.440Z,37.53
2022-08-07T09:56:37.687Z,37.04
2022-08-07T09:57:27.204Z,37.12
2022-08-07T09:58:31.955Z,36.82
2022-08-07T09:59:30.085Z,37.08
2022-08-07T10:00:29.842Z,36.19
2022-08-07T10:01:53.710Z,36.08
2022-08-07T10:02:29.527Z,35.91
2022-08-07T10:04:05.922Z,36.08
2022-08-07T10:04:28.157Z,36.08
2022-08-07T10:05:29.753Z,35.59
2022-08-07T10:06:26.365Z,35.89
2022-08-07T10:07:26.166Z,36.19
2022-08-07T10:08:26.270Z,35.80
2022-08-07T10:09:42.591Z,35.91
2022-08-07T10:10:28.178Z,35.80
2022-08-07T10:12:01.635Z,35.91
2022-08-07T10:12:28.381Z,36.10
2022-08-07T10:13:55.180Z,35.79
2022-08-07T10:14:31.141Z,37.36
2022-08-07T10:15:26.183Z,35.36
2022-08-07T10:16:25.099Z,34.86
2022-08-07T10:17:25.109Z,35.57
2022-08-07T10:18:26.342Z,35.49
2022-08-07T10:19:25.067Z,35.49
2022-08-07T10:20:30.699Z,35.79
2022-08-07T10:22:14.559Z,35.67
2022-08-07T10:22:33.589Z,35.27
2022-08-07T10:24:05.409Z,33.88
2022-08-07T10:24:26.079Z,34.68
2022-08-07T10:25:25.029Z,34.58
2022-08-07T10:26:26.079Z,34.48
2022-08-07T10:27:24.977Z,35.17
2022-08-07T10:28:25.978Z,34.28
2022-08-07T10:29:24.950Z,34.28
2022-08-07T10:30:26.498Z,34.38
2022-08-07T10:31:24.900Z,34.38
2022-08-07T10:32:51.692Z,34.58
2022-08-07T10:34:14.242Z,34.96
2022-08-07T10:34:27.237Z,34.38
2022-08-07T10:35:25.994Z,34.68
2022-08-07T10:36:29.245Z,34.88
2022-08-07T10:37:48.430Z,34.56
2022-08-07T10:38:36.284Z,35.24
2022-08-07T10:39:25.866Z,34.84
2022-08-07T10:40:30.204Z,34.05
2022-08-07T10:41:46.357Z,34.36
2022-08-07T10:42:30.997Z,34.17
2022-08-07T10:43:29.871Z,33.97
2022-08-07T10:44:28.677Z,33.29
2022-08-07T10:45:57.353Z,33.98
2022-08-07T10:46:25.733Z,33.57
2022-08-07T10:47:26.995Z,33.57
2022-08-07T10:48:25.677Z,33.37
2022-08-07T10:49:49.646Z,34.06
2022-08-07T10:50:26.485Z,33.65
2022-08-07T10:51:39.291Z,32.86
2022-08-07T10:52:31.810Z,32.57
2022-08-07T10:53:25.653Z,33.07
2022-08-07T10:54:24.737Z,33.37
2022-08-07T10:55:36.885Z,32.87
2022-08-07T10:56:30.887Z,34.17
2022-08-07T10:57:34.518Z,33.06
2022-08-07T10:58:33.111Z,32.66
2022-08-07T10:59:25.622Z,33.55
2022-08-07T11:00:36.483Z,33.25
2022-08-07T11:01:25.715Z,33.14
2022-08-07T11:02:33.445Z,33.24
2022-08-07T11:03:28.111Z,32.76
2022-08-07T11:04:32.239Z,32.97
2022-08-07T11:05:35.990Z,33.07
2022-08-07T11:06:26.704Z,33.27
2022-08-07T11:07:58.507Z,33.25
2022-08-07T11:08:30.335Z,32.54
2022-08-07T11:10:09.346Z,32.76
2022-08-07T11:10:27.510Z,32.94
2022-08-07T11:11:24.464Z,32.84
2022-08-07T11:12:32.313Z,33.36
2022-08-07T11:14:42.255Z,33.06
2022-08-07T11:14:56.582Z,33.45
2022-08-07T11:15:31.512Z,33.64
2022-08-07T11:16:25.598Z,32.94
2022-08-07T11:17:43.368Z,32.75
2022-08-07T11:18:25.274Z,32.64
2022-08-07T11:19:27.114Z,32.35
2022-08-07T11:20:24.605Z,32.14
2022-08-07T11:21:24.243Z,32.53
2022-08-07T11:22:32.468Z,32.81
2022-08-07T11:23:30.396Z,32.43
2022-08-07T11:24:25.343Z,31.65
2022-08-07T11:25:24.206Z,32.15
2022-08-07T11:26:24.234Z,31.55
2022-08-07T11:28:01.968Z,31.75
2022-08-07T11:28:25.162Z,32.03
2022-08-07T11:29:42.776Z,30.74
2022-08-07T11:30:29.090Z,30.74
2022-08-07T11:31:25.116Z,31.04
2022-08-07T11:32:25.429Z,31.55
2022-08-07T11:33:53.875Z,31.15
2022-08-07T11:34:25.150Z,31.45
2022-08-07T11:35:26.719Z,30.96
2022-08-07T11:36:25.409Z,31.35
2022-08-07T11:37:25.020Z,31.35
2022-08-07T11:38:28.268Z,31.24
2022-08-07T11:39:24.063Z,31.02
2022-08-07T11:40:24.140Z,30.15
2022-08-07T11:41:29.722Z,30.74
2022-08-07T11:42:29.507Z,30.65
2022-08-07T11:43:29.543Z,30.84
2022-08-07T11:44:24.964Z,30.55
2022-08-07T11:45:35.585Z,30.13
2022-08-07T11:46:25.203Z,30.15
2022-08-07T11:47:26.155Z,30.44
2022-08-07T11:48:29.480Z,30.93
2022-08-07T11:49:51.599Z,30.94
2022-08-07T11:50:31.489Z,31.04
2022-08-07T11:51:40.825Z,31.24
2022-08-07T11:52:29.438Z,31.63
2022-08-07T11:53:25.318Z,31.24
2022-08-07T11:54:25.360Z,31.63
2022-08-07T11:56:15.579Z,31.24
2022-08-07T11:56:28.104Z,29.83
2022-08-07T11:58:00.111Z,30.13
2022-08-07T11:58:33.476Z,30.05
2022-08-07T12:00:11.709Z,29.25
2022-08-07T12:00:28.302Z,29.65
2022-08-07T12:01:23.738Z,29.95
2022-08-07T12:02:30.398Z,30.35
2022-08-07T12:03:44.479Z,30.43
2022-08-07T12:04:24.661Z,30.35
2022-08-07T12:05:41.076Z,30.55
2022-08-07T12:06:39.716Z,31.02
2022-08-07T12:07:27.085Z,31.13
2022-08-07T12:08:31.475Z,30.63
2022-08-07T12:09:24.698Z,30.63
2022-08-07T12:10:23.733Z,30.63
2022-08-07T12:11:23.644Z,31.54
2022-08-07T12:12:24.587Z,30.94
2022-08-07T12:13:35.295Z,29.75
2022-08-07T12:14:24.521Z,30.23
2022-08-07T12:15:35.904Z,29.82
2022-08-07T12:16:29.913Z,29.92
2022-08-07T12:17:24.515Z,30.32
2022-08-07T12:18:29.647Z,30.62
2022-08-07T12:19:24.498Z,30.52
2022-08-07T12:20:30.606Z,31.23
2022-08-07T12:22:36.171Z,30.43
2022-08-07T12:22:38.654Z,30.22
2022-08-07T12:23:37.370Z,30.62
2022-08-07T12:24:37.423Z,30.13
2022-08-07T12:26:00.802Z,30.43
2022-08-07T12:26:29.827Z,29.43
2022-08-07T12:27:27.615Z,29.34
2022-08-07T12:28:24.047Z,29.94
2022-08-07T12:29:37.939Z,30.33
2022-08-07T12:30:24.312Z,30.04
2022-08-07T12:31:23.596Z,30.53
2022-08-07T12:32:23.378Z,31.02
2022-08-07T12:33:30.815Z,30.43
2022-08-07T12:34:26.005Z,30.33
2022-08-07T12:35:24.061Z,30.33
2022-08-07T12:36:33.166Z,30.33
2022-08-07T12:37:28.625Z,30.63
2022-08-07T12:38:38.455Z,30.33
2022-08-07T12:39:42.075Z,30.91
2022-08-07T12:40:46.658Z,30.62
2022-08-07T12:41:24.280Z,30.62
2022-08-07T12:42:27.776Z,31.11
2022-08-07T12:44:01.486Z,30.21
2022-08-07T12:44:24.151Z,30.21
2022-08-07T12:45:23.224Z,29.82
2022-08-07T12:46:26.333Z,30.00
2022-08-07T12:47:32.922Z,28.90
2022-08-07T12:48:27.888Z,28.72
2022-08-07T12:49:40.244Z,28.81
2022-08-07T12:50:34.017Z,29.21
2022-08-07T12:51:24.092Z,29.11
2022-08-07T12:52:24.045Z,28.92